createdAt,value
2023-04-09T00:00:29.198Z,96.14
2023-04-09T00:03:14.542Z,96.01
2023-04-09T00:06:00.085Z,95.82
2023-04-09T00:08:45.677Z,95.70
2023-04-09T00:11:31.255Z,95.72
2023-04-09T00:14:16.526Z,95.42
2023-04-09T00:17:01.686Z,95.70
2023-04-09T00:19:47.015Z,95.76
2023-04-09T00:22:32.305Z,95.59
2023-04-09T00:25:17.702Z,95.66
2023-04-09T00:28:03.473Z,95.65
2023-04-09T00:30:48.410Z,95.46
2023-04-09T00:33:33.789Z,96.00
2023-04-09T00:36:19.120Z,95.75
2023-04-09T00:39:04.532Z,95.59
2023-04-09T00:41:49.746Z,96.03
2023-04-09T00:44:34.980Z,96.29
2023-04-09T00:47:20.437Z,96.73
2023-04-09T00:50:06.466Z,96.92
2023-04-09T00:52:52.113Z,96.95
2023-04-09T00:55:39.968Z,96.99
2023-04-09T00:58:25.018Z,96.74
2023-04-09T01:01:10.403Z,97.05
2023-04-09T01:03:56.485Z,96.94
2023-04-09T01:06:41.432Z,96.83
2023-04-09T01:09:42.543Z,97.25
2023-04-09T01:12:37.034Z,97.15
2023-04-09T01:15:33.822Z,96.85
2023-04-09T01:18:36.127Z,96.86
2023-04-09T01:21:26.308Z,97.50
2023-04-09T01:24:31.326Z,97.36
2023-04-09T01:27:17.606Z,97.50
2023-04-09T01:30:05.172Z,97.73
2023-04-09T01:32:52.456Z,97.62
2023-04-09T01:35:38.611Z,98.58
2023-04-09T01:38:25.659Z,98.51
2023-04-09T01:41:16.619Z,99.26
2023-04-09T01:44:03.471Z,99.13
2023-04-09T01:46:50.124Z,99.69
2023-04-09T01:49:36.114Z,99.44
2023-04-09T01:52:21.862Z,99.47
2023-04-09T01:55:07.830Z,99.37
2023-04-09T01:57:53.324Z,98.75
2023-04-09T02:00:41.486Z,98.98
2023-04-09T02:03:33.893Z,99.10
2023-04-09T02:06:56.667Z,98.80
2023-04-09T02:09:45.092Z,98.44
2023-04-09T02:12:33.387Z,98.58
2023-04-09T02:15:21.683Z,98.67
2023-04-09T02:18:28.607Z,98.72
2023-04-09T02:21:13.912Z,98.99
2023-04-09T02:23:59.714Z,99.51
2023-04-09T02:26:44.846Z,99.49
2023-04-09T02:29:33.492Z,99.52
2023-04-09T02:32:18.913Z,99.48
2023-04-09T02:35:04.406Z,99.72
2023-04-09T02:37:49.392Z,99.93
2023-04-09T02:40:34.667Z,99.62
2023-04-09T02:43:19.794Z,99.62
2023-04-09T02:46:05.419Z,98.81
2023-04-09T02:48:50.945Z,98.85
2023-04-09T02:51:36.882Z,98.95
2023-04-09T02:54:22.162Z,99.11
2023-04-09T02:57:07.494Z,99.21
2023-04-09T02:59:52.840Z,98.78
2023-04-09T03:02:38.265Z,98.82
2023-04-09T03:05:23.591Z,98.58
2023-04-09T03:08:08.858Z,98.52
2023-04-09T03:10:54.160Z,99.26
2023-04-09T03:13:39.500Z,99.68
2023-04-09T03:16:25.708Z,100.00
2023-04-09T03:19:11.289Z,100.00
2023-04-09T03:21:56.622Z,100.00
2023-04-09T03:24:42.027Z,100.00
2023-04-09T03:27:27.324Z,99.64
2023-04-09T03:30:12.893Z,99.31
2023-04-09T03:32:59.535Z,99.43
2023-04-09T03:35:44.843Z,99.32
2023-04-09T03:38:29.976Z,99.17
2023-04-09T03:41:15.574Z,98.76
2023-04-09T03:44:00.744Z,99.31
2023-04-09T03:46:46.428Z,99.09
2023-04-09T03:49:31.995Z,99.15
2023-04-09T03:52:17.204Z,98.89
2023-04-09T03:55:03.631Z,98.98
2023-04-09T03:57:49.138Z,99.74
2023-04-09T04:00:34.589Z,99.50
2023-04-09T04:03:20.064Z,99.06
2023-04-09T04:06:05.383Z,99.88
2023-04-09T04:08:50.981Z,100.00
2023-04-09T04:11:36.417Z,100.00
2023-04-09T04:14:21.854Z,99.83
2023-04-09T04:17:07.070Z,100.00
2023-04-09T04:19:52.424Z,100.00
2023-04-09T04:22:37.651Z,100.00
2023-04-09T04:25:22.790Z,100.00
2023-04-09T04:28:08.899Z,100.00
2023-04-09T04:30:53.807Z,100.00
2023-04-09T04:33:40.719Z,100.00
2023-04-09T04:36:26.205Z,100.00
2023-04-09T04:39:11.340Z,100.00
2023-04-09T04:41:56.964Z,99.83
2023-04-09T04:44:41.866Z,100.00
2023-04-09T04:47:27.412Z,100.00
2023-04-09T04:50:12.418Z,100.00
2023-04-09T04:52:57.736Z,100.00
2023-04-09T04:55:43.104Z,100.00
2023-04-09T04:58:28.310Z,100.00
2023-04-09T05:01:13.807Z,100.00
2023-04-09T05:03:58.952Z,100.00
2023-04-09T05:06:44.209Z,100.00
2023-04-09T05:09:29.495Z,100.00
2023-04-09T05:12:15.502Z,100.00
2023-04-09T05:15:00.552Z,100.00
2023-04-09T05:17:45.809Z,100.00
2023-04-09T05:20:31.205Z,100.00
2023-04-09T05:23:16.508Z,100.00
2023-04-09T05:26:01.937Z,100.00
2023-04-09T05:28:47.546Z,100.00
2023-04-09T05:31:32.633Z,100.00
2023-04-09T05:34:17.923Z,100.00
2023-04-09T05:37:03.174Z,100.00
2023-04-09T05:39:48.500Z,100.00
2023-04-09T05:42:33.989Z,100.00
2023-04-09T05:45:18.952Z,100.00
2023-04-09T05:48:04.509Z,100.00
2023-04-09T05:50:55.460Z,100.00
2023-04-09T05:53:40.612Z,100.00
2023-04-09T05:56:27.178Z,100.00
2023-04-09T05:59:14.653Z,100.00
2023-04-09T06:02:00.137Z,100.00
2023-04-09T06:04:45.609Z,100.00
2023-04-09T06:07:30.853Z,100.00
2023-04-09T06:10:16.298Z,100.00
2023-04-09T06:13:01.525Z,100.00
2023-04-09T06:15:46.926Z,100.00
2023-04-09T06:18:32.741Z,100.00
2023-04-09T06:21:17.965Z,100.00
2023-04-09T06:24:03.544Z,100.00
2023-04-09T06:26:49.099Z,100.00
2023-04-09T06:29:34.302Z,100.00
2023-04-09T06:32:19.668Z,100.00
2023-04-09T06:35:05.707Z,100.00
2023-04-09T06:37:50.936Z,100.00
2023-04-09T06:40:39.677Z,100.00
2023-04-09T06:43:24.919Z,100.00
2023-04-09T06:46:10.061Z,100.00
2023-04-09T06:48:55.558Z,100.00
2023-04-09T06:51:41.022Z,100.00
2023-04-09T06:54:26.190Z,100.00
2023-04-09T06:57:11.349Z,100.00
2023-04-09T06:59:56.553Z,100.00
2023-04-09T07:02:42.066Z,100.00
2023-04-09T07:05:27.394Z,100.00
2023-04-09T07:08:12.930Z,100.00
2023-04-09T07:10:58.214Z,100.00
2023-04-09T07:13:43.569Z,100.00
2023-04-09T07:16:28.818Z,100.00
2023-04-09T07:19:14.148Z,100.00
2023-04-09T07:21:59.273Z,100.00
2023-04-09T07:24:44.794Z,100.00
2023-04-09T07:27:30.096Z,100.00
2023-04-09T07:30:15.739Z,100.00
2023-04-09T07:33:01.026Z,100.00
2023-04-09T07:35:47.039Z,100.00
2023-04-09T07:38:32.428Z,100.00
2023-04-09T07:41:17.573Z,100.00
2023-04-09T07:44:03.821Z,100.00
2023-04-09T07:46:49.188Z,100.00
2023-04-09T07:49:37.120Z,100.00
2023-04-09T07:52:22.556Z,100.00
2023-04-09T07:55:07.956Z,100.00
2023-04-09T07:57:53.401Z,100.00
2023-04-09T08:00:38.849Z,100.00
2023-04-09T08:03:24.230Z,100.00
2023-04-09T08:06:09.537Z,100.00
2023-04-09T08:08:54.924Z,100.00
2023-04-09T08:11:40.502Z,100.00
2023-04-09T08:14:25.741Z,100.00
2023-04-09T08:17:11.094Z,100.00
2023-04-09T08:19:56.396Z,100.00
2023-04-09T08:22:42.275Z,100.00
2023-04-09T08:25:27.596Z,100.00
2023-04-09T08:28:13.198Z,100.00
2023-04-09T08:30:58.422Z,100.00
2023-04-09T08:33:43.542Z,100.00
2023-04-09T08:36:29.014Z,100.00
2023-04-09T08:39:16.487Z,100.00
2023-04-09T08:42:02.309Z,100.00
2023-04-09T08:44:47.919Z,100.00
2023-04-09T08:47:34.521Z,100.00
2023-04-09T08:50:20.642Z,98.76
2023-04-09T08:53:08.238Z,97.20
2023-04-09T08:55:53.652Z,95.49
2023-04-09T08:58:42.577Z,95.61
2023-04-09T09:01:32.481Z,94.72
2023-04-09T09:04:18.007Z,94.50
2023-04-09T09:07:07.203Z,93.21
2023-04-09T09:09:59.233Z,92.20
2023-04-09T09:12:44.473Z,90.26
2023-04-09T09:15:30.920Z,88.79
2023-04-09T09:18:18.041Z,87.20
2023-04-09T09:21:17.768Z,86.40
2023-04-09T09:24:17.164Z,85.22
2023-04-09T09:27:03.079Z,85.21
2023-04-09T09:29:48.406Z,83.96
2023-04-09T09:32:34.531Z,87.08
2023-04-09T09:35:20.471Z,85.51
2023-04-09T09:38:05.515Z,84.20
2023-04-09T09:40:50.634Z,82.33
2023-04-09T09:43:45.401Z,82.49
2023-04-09T09:46:35.493Z,80.75
2023-04-09T09:49:21.218Z,79.10
2023-04-09T09:52:09.876Z,80.51
2023-04-09T09:54:55.826Z,78.29
2023-04-09T09:57:44.382Z,75.34
2023-04-09T10:00:32.336Z,77.28
2023-04-09T10:03:24.964Z,76.48
2023-04-09T10:06:12.103Z,77.00
2023-04-09T10:08:58.330Z,76.24
2023-04-09T10:11:47.951Z,75.60
2023-04-09T10:14:35.897Z,75.47
2023-04-09T10:17:22.181Z,74.44
2023-04-09T10:20:41.862Z,74.89
2023-04-09T10:23:49.479Z,75.43
2023-04-09T10:26:36.471Z,74.16
2023-04-09T10:29:28.698Z,73.67
2023-04-09T10:32:21.225Z,75.63
2023-04-09T10:35:09.617Z,73.88
2023-04-09T10:37:54.779Z,75.50
2023-04-09T10:40:49.588Z,72.19
2023-04-09T10:43:36.702Z,72.57
2023-04-09T10:46:34.910Z,70.71
2023-04-09T10:49:24.381Z,69.24
2023-04-09T10:52:12.606Z,68.95
2023-04-09T10:54:57.726Z,69.26
2023-04-09T10:57:43.227Z,69.82
2023-04-09T11:00:28.296Z,70.02
2023-04-09T11:03:30.618Z,69.93
2023-04-09T11:06:20.733Z,68.46
2023-04-09T11:09:05.894Z,68.45
2023-04-09T11:11:54.340Z,69.50
2023-04-09T11:14:39.671Z,70.24
2023-04-09T11:17:25.564Z,71.14
2023-04-09T11:20:11.526Z,71.09
2023-04-09T11:22:57.292Z,69.82
2023-04-09T11:25:42.706Z,69.93
2023-04-09T11:28:28.010Z,71.49
2023-04-09T11:31:13.321Z,69.97
2023-04-09T11:33:58.602Z,70.91
2023-04-09T11:36:43.698Z,71.03
2023-04-09T11:39:29.208Z,69.83
2023-04-09T11:42:17.623Z,69.54
2023-04-09T11:45:04.329Z,68.72
2023-04-09T11:47:49.841Z,67.39
2023-04-09T11:50:37.475Z,66.65
2023-04-09T11:53:24.532Z,66.20
2023-04-09T11:56:10.404Z,65.83
2023-04-09T11:58:55.917Z,65.72
2023-04-09T12:01:41.770Z,66.47
2023-04-09T12:04:27.181Z,66.21
2023-04-09T12:07:12.577Z,68.05
2023-04-09T12:10:04.618Z,68.69
2023-04-09T12:12:50.255Z,68.02
2023-04-09T12:15:38.396Z,67.67
2023-04-09T12:18:23.604Z,68.02
2023-04-09T12:21:08.738Z,67.60
2023-04-09T12:23:54.066Z,68.67
2023-04-09T12:26:39.367Z,68.74
2023-04-09T12:29:26.192Z,67.66
2023-04-09T12:32:11.557Z,66.26
2023-04-09T12:34:57.085Z,66.58
2023-04-09T12:37:43.793Z,67.96
2023-04-09T12:40:29.137Z,68.09
2023-04-09T12:43:14.404Z,67.99
2023-04-09T12:45:59.920Z,68.04
2023-04-09T12:48:46.400Z,67.57
2023-04-09T12:51:31.690Z,67.99
2023-04-09T12:54:17.541Z,67.22
2023-04-09T12:57:02.970Z,67.17
2023-04-09T12:59:48.254Z,67.17
2023-04-09T13:02:34.580Z,67.79
2023-04-09T13:05:19.884Z,68.63
2023-04-09T13:08:05.222Z,68.87
2023-04-09T13:10:50.717Z,68.35
2023-04-09T13:13:35.926Z,68.76
2023-04-09T13:16:21.262Z,68.56
2023-04-09T13:19:07.747Z,67.83
2023-04-09T13:21:52.831Z,67.60
2023-04-09T13:24:39.012Z,68.62
2023-04-09T13:27:24.263Z,68.77
2023-04-09T13:30:09.755Z,69.66
2023-04-09T13:32:55.141Z,68.53
2023-04-09T13:35:41.000Z,69.19
2023-04-09T13:38:26.714Z,68.82
2023-04-09T13:41:11.827Z,68.54
2023-04-09T13:43:57.149Z,68.21
2023-04-09T13:46:43.684Z,67.71
2023-04-09T13:49:30.323Z,67.64
2023-04-09T13:52:15.823Z,67.71
2023-04-09T13:55:01.229Z,67.17
2023-04-09T13:57:46.579Z,66.57
2023-04-09T14:00:32.542Z,65.50
2023-04-09T14:03:17.596Z,66.05
2023-04-09T14:06:03.191Z,66.24
2023-04-09T14:08:48.509Z,65.58
2023-04-09T14:11:33.486Z,65.67
2023-04-09T14:14:19.939Z,65.45
2023-04-09T14:17:04.980Z,65.75
2023-04-09T14:19:50.364Z,65.97
2023-04-09T14:22:38.122Z,66.00
2023-04-09T14:25:23.362Z,66.29
2023-04-09T14:28:08.856Z,66.04
2023-04-09T14:30:54.382Z,66.15
2023-04-09T14:33:41.535Z,66.74
2023-04-09T14:36:27.379Z,66.75
2023-04-09T14:39:12.317Z,66.79
2023-04-09T14:41:57.757Z,67.28
2023-04-09T14:44:43.021Z,67.30
2023-04-09T14:47:28.365Z,66.99
2023-04-09T14:50:13.716Z,66.83
2023-04-09T14:52:58.873Z,66.28
2023-04-09T14:55:44.378Z,66.47
2023-04-09T14:58:29.475Z,66.55
2023-04-09T15:01:14.936Z,66.96
2023-04-09T15:04:00.637Z,67.40
2023-04-09T15:06:46.257Z,66.84
2023-04-09T15:09:31.736Z,67.04
2023-04-09T15:12:16.969Z,67.59
2023-04-09T15:15:06.071Z,67.30
2023-04-09T15:17:51.521Z,66.92
2023-04-09T15:20:40.498Z,66.88
2023-04-09T15:23:26.049Z,68.23
2023-04-09T15:26:11.264Z,68.09
2023-04-09T15:29:07.214Z,68.59
2023-04-09T15:31:53.347Z,68.76
2023-04-09T15:34:38.570Z,69.30
2023-04-09T15:37:24.054Z,69.71
2023-04-09T15:40:09.601Z,71.92
2023-04-09T15:42:55.348Z,73.48
2023-04-09T15:45:41.109Z,73.56
2023-04-09T15:48:26.621Z,73.48
2023-04-09T15:51:12.096Z,74.44
2023-04-09T15:53:57.358Z,75.29
2023-04-09T15:56:42.861Z,76.95
2023-04-09T15:59:28.100Z,77.52
2023-04-09T16:02:13.201Z,77.30
2023-04-09T16:04:58.356Z,76.75
2023-04-09T16:07:43.684Z,76.60
2023-04-09T16:10:28.735Z,76.74
2023-04-09T16:13:13.735Z,76.64
2023-04-09T16:15:59.864Z,76.42
2023-04-09T16:18:44.833Z,76.83
2023-04-09T16:21:29.841Z,76.48
2023-04-09T16:24:15.601Z,76.39
2023-04-09T16:27:01.531Z,76.57
2023-04-09T16:29:46.986Z,76.47
2023-04-09T16:32:32.174Z,77.18
2023-04-09T16:35:17.261Z,77.43
2023-04-09T16:38:02.620Z,77.71
2023-04-09T16:40:47.807Z,78.22
2023-04-09T16:43:32.919Z,78.42
2023-04-09T16:46:18.242Z,78.48
2023-04-09T16:49:03.779Z,78.24
2023-04-09T16:51:51.754Z,78.58
2023-04-09T16:54:37.026Z,78.76
2023-04-09T16:57:22.678Z,78.81
2023-04-09T17:00:08.895Z,78.80
2023-04-09T17:02:55.694Z,79.48
2023-04-09T17:05:41.451Z,79.76
2023-04-09T17:08:26.613Z,79.32
2023-04-09T17:11:18.025Z,79.69
2023-04-09T17:14:03.292Z,79.87
2023-04-09T17:16:48.696Z,79.55
2023-04-09T17:19:34.089Z,79.95
2023-04-09T17:22:19.398Z,80.18
2023-04-09T17:25:04.858Z,80.43
2023-04-09T17:27:50.254Z,80.40
2023-04-09T17:30:35.491Z,80.44
2023-04-09T17:33:20.864Z,80.61
2023-04-09T17:36:06.203Z,80.18
2023-04-09T17:38:56.644Z,80.36
2023-04-09T17:41:45.837Z,80.19
2023-04-09T17:44:35.079Z,80.40
2023-04-09T17:47:20.693Z,80.78
2023-04-09T17:50:07.562Z,80.86
2023-04-09T17:52:52.874Z,80.77
2023-04-09T17:55:38.180Z,80.24
2023-04-09T17:58:24.909Z,80.95
2023-04-09T18:01:12.617Z,80.48
2023-04-09T18:03:58.010Z,80.35
2023-04-09T18:06:43.591Z,80.90
2023-04-09T18:09:28.626Z,80.93
2023-04-09T18:12:13.793Z,80.88
2023-04-09T18:14:58.896Z,81.12
2023-04-09T18:17:44.526Z,81.05
2023-04-09T18:20:29.752Z,81.00
2023-04-09T18:23:15.376Z,81.17
2023-04-09T18:26:00.526Z,81.49
2023-04-09T18:28:45.780Z,81.13
2023-04-09T18:31:31.165Z,81.73
2023-04-09T18:34:16.835Z,81.49
2023-04-09T18:37:02.214Z,81.90
2023-04-09T18:39:47.508Z,81.71
2023-04-09T18:42:32.531Z,82.25
2023-04-09T18:45:17.580Z,82.40
2023-04-09T18:48:03.342Z,82.39
2023-04-09T18:50:48.974Z,82.03
2023-04-09T18:53:33.856Z,82.25
2023-04-09T18:56:20.096Z,82.29
2023-04-09T18:59:05.709Z,82.24
2023-04-09T19:01:51.061Z,82.69
2023-04-09T19:04:40.021Z,82.76
2023-04-09T19:07:25.889Z,82.91
2023-04-09T19:10:10.965Z,82.96
2023-04-09T19:12:55.958Z,82.69
2023-04-09T19:15:41.203Z,83.12
2023-04-09T19:18:26.731Z,82.91
2023-04-09T19:21:12.118Z,82.85
2023-04-09T19:23:57.311Z,83.00
2023-04-09T19:26:42.567Z,82.91
2023-04-09T19:29:27.935Z,82.96
2023-04-09T19:32:13.397Z,83.04
2023-04-09T19:34:58.618Z,82.86
2023-04-09T19:37:44.939Z,83.22
2023-04-09T19:40:30.452Z,83.49
2023-04-09T19:43:15.670Z,83.70
2023-04-09T19:46:06.561Z,83.78
2023-04-09T19:48:52.392Z,84.23
2023-04-09T19:51:37.828Z,84.13
2023-04-09T19:54:23.283Z,84.44
2023-04-09T19:57:08.635Z,84.87
2023-04-09T19:59:54.147Z,84.71
2023-04-09T20:02:41.555Z,85.14
2023-04-09T20:05:27.224Z,85.36
2023-04-09T20:08:15.749Z,85.81
2023-04-09T20:11:01.670Z,85.78
2023-04-09T20:13:48.175Z,85.75
2023-04-09T20:16:33.814Z,85.60
2023-04-09T20:19:19.860Z,85.88
2023-04-09T20:22:05.488Z,85.93
2023-04-09T20:24:50.847Z,86.17
2023-04-09T20:27:35.922Z,86.21
2023-04-09T20:30:21.631Z,86.31
2023-04-09T20:33:06.945Z,86.73
2023-04-09T20:35:53.197Z,87.10
2023-04-09T20:38:38.440Z,86.95
2023-04-09T20:41:23.658Z,87.11
2023-04-09T20:44:09.185Z,87.01
2023-04-09T20:46:54.486Z,87.18
2023-04-09T20:49:39.952Z,87.22
2023-04-09T20:52:28.076Z,87.31
2023-04-09T20:55:13.548Z,87.05
2023-04-09T20:58:00.175Z,87.31
2023-04-09T21:00:45.724Z,87.38
2023-04-09T21:03:31.379Z,87.71
2023-04-09T21:06:19.591Z,87.33
2023-04-09T21:09:04.631Z,87.29
2023-04-09T21:11:50.025Z,87.52
2023-04-09T21:14:35.547Z,87.59
2023-04-09T21:17:21.034Z,87.63
2023-04-09T21:20:06.855Z,87.96
2023-04-09T21:22:52.952Z,88.40
2023-04-09T21:25:38.015Z,88.46
2023-04-09T21:28:24.246Z,88.67
2023-04-09T21:31:11.250Z,88.73
2023-04-09T21:33:57.062Z,88.92
2023-04-09T21:36:42.325Z,89.08
2023-04-09T21:39:28.592Z,89.84
2023-04-09T21:42:13.860Z,90.23
2023-04-09T21:44:59.021Z,89.97
2023-04-09T21:47:44.675Z,89.76
2023-04-09T21:50:32.206Z,89.43
2023-04-09T21:53:17.482Z,89.66
2023-04-09T21:56:04.966Z,89.56
2023-04-09T21:58:50.701Z,89.57
2023-04-09T22:01:36.399Z,89.81
2023-04-09T22:04:21.669Z,89.91
2023-04-09T22:07:06.944Z,90.01
2023-04-09T22:09:57.752Z,89.99
2023-04-09T22:12:42.753Z,89.65
2023-04-09T22:15:28.058Z,89.77
2023-04-09T22:18:13.418Z,89.90
2023-04-09T22:20:58.751Z,90.40
2023-04-09T22:23:44.453Z,90.39
2023-04-09T22:26:29.494Z,90.19
2023-04-09T22:29:14.728Z,90.36
2023-04-09T22:32:00.115Z,90.32
2023-04-09T22:34:45.299Z,89.80
2023-04-09T22:37:30.842Z,89.98
2023-04-09T22:40:16.716Z,90.34
2023-04-09T22:43:01.649Z,90.58
2023-04-09T22:45:54.643Z,90.27
2023-04-09T22:48:44.455Z,90.05
2023-04-09T22:51:31.701Z,89.89
2023-04-09T22:54:16.698Z,90.20
2023-04-09T22:57:02.324Z,89.76
2023-04-09T22:59:47.555Z,89.49
2023-04-09T23:02:32.927Z,89.33
2023-04-09T23:05:18.139Z,89.13
2023-04-09T23:08:03.549Z,88.53
2023-04-09T23:10:49.143Z,88.49
2023-04-09T23:13:33.989Z,88.23
2023-04-09T23:16:19.343Z,88.47
2023-04-09T23:19:04.776Z,88.47
2023-04-09T23:21:50.069Z,87.92
2023-04-09T23:24:36.410Z,87.39
2023-04-09T23:27:28.192Z,88.09
2023-04-09T23:30:17.315Z,88.30
2023-04-09T23:33:02.460Z,88.28
2023-04-09T23:35:48.103Z,88.04
2023-04-09T23:38:33.629Z,88.37
2023-04-09T23:41:18.963Z,88.51
2023-04-09T23:44:04.472Z,88.09
2023-04-09T23:46:49.633Z,88.41
2023-04-09T23:49:34.794Z,88.34
2023-04-09T23:52:20.173Z,88.61
2023-04-09T23:55:08.948Z,88.30
2023-04-09T23:57:54.479Z,88.02
